createdAt,value
2023-01-07T00:01:57.752Z,15.87
2023-01-07T00:04:27.790Z,15.88
2023-01-07T00:06:59.600Z,16.15
2023-01-07T00:09:29.687Z,15.65
2023-01-07T00:12:02.234Z,16.17
2023-01-07T00:14:34.872Z,16.77
2023-01-07T00:17:04.949Z,16.60
2023-01-07T00:19:35.019Z,16.67
2023-01-07T00:22:05.143Z,15.30
2023-01-07T00:24:35.394Z,16.60
2023-01-07T00:27:05.401Z,15.48
2023-01-07T00:29:38.000Z,16.52
2023-01-07T00:32:08.347Z,16.13
2023-01-07T00:34:39.169Z,16.48
2023-01-07T00:37:33.369Z,15.65
2023-01-07T00:40:03.485Z,15.93
2023-01-07T00:42:45.898Z,16.15
2023-01-07T00:45:19.151Z,16.83
2023-01-07T00:47:49.363Z,17.38
2023-01-07T00:50:19.667Z,17.48
2023-01-07T00:52:49.818Z,18.23
2023-01-07T00:55:20.764Z,18.10
2023-01-07T00:57:50.894Z,17.85
2023-01-07T01:00:25.975Z,17.02
2023-01-07T01:02:56.681Z,18.08
2023-01-07T01:05:26.849Z,18.27
2023-01-07T01:07:57.064Z,18.25
2023-01-07T01:10:28.099Z,18.95
2023-01-07T01:12:58.263Z,19.27
2023-01-07T01:15:31.832Z,19.23
2023-01-07T01:18:01.908Z,18.77
2023-01-07T01:20:32.184Z,20.27
2023-01-07T01:23:02.255Z,19.05
2023-01-07T01:25:32.357Z,18.63
2023-01-07T01:28:02.641Z,19.33
2023-01-07T01:30:36.062Z,18.98
2023-01-07T01:33:06.207Z,18.98
2023-01-07T01:35:36.257Z,20.20
2023-01-07T01:38:06.489Z,19.55
2023-01-07T01:40:36.742Z,20.10
2023-01-07T01:43:08.402Z,19.65
2023-01-07T01:45:41.611Z,19.20
2023-01-07T01:48:13.084Z,19.98
2023-01-07T01:50:47.107Z,19.67
2023-01-07T01:53:23.011Z,18.73
2023-01-07T01:55:58.157Z,19.80
2023-01-07T01:58:32.934Z,20.27
2023-01-07T02:01:06.213Z,19.17
2023-01-07T02:03:38.832Z,21.00
2023-01-07T02:06:13.283Z,21.00
2023-01-07T02:08:43.494Z,19.48
2023-01-07T02:11:38.462Z,19.10
2023-01-07T02:14:23.069Z,18.40
2023-01-07T02:17:06.846Z,21.05
2023-01-07T02:20:11.391Z,22.08
2023-01-07T02:23:07.693Z,23.05
2023-01-07T02:26:02.968Z,21.40
2023-01-07T02:28:52.938Z,24.50
2023-01-07T02:31:39.991Z,25.80
2023-01-07T02:34:20.937Z,24.65
2023-01-07T02:36:59.877Z,24.27
2023-01-07T02:39:49.315Z,25.95
2023-01-07T02:42:30.449Z,24.20
2023-01-07T02:45:08.210Z,23.60
2023-01-07T02:47:41.999Z,22.75
2023-01-07T02:50:14.832Z,22.88
2023-01-07T02:52:45.320Z,25.35
2023-01-07T02:55:18.464Z,23.33
2023-01-07T02:58:26.241Z,23.95
2023-01-07T03:01:13.637Z,22.45
2023-01-07T03:03:58.153Z,22.67
2023-01-07T03:06:47.773Z,24.80
2023-01-07T03:09:26.073Z,25.38
2023-01-07T03:12:03.902Z,25.50
2023-01-07T03:14:41.179Z,25.25
2023-01-07T03:17:16.713Z,26.50
2023-01-07T03:19:50.771Z,25.85
2023-01-07T03:22:28.224Z,26.33
2023-01-07T03:25:00.579Z,25.83
2023-01-07T03:27:34.190Z,26.60
2023-01-07T03:30:08.400Z,26.08
2023-01-07T03:32:44.673Z,26.67
2023-01-07T03:35:15.298Z,28.42
2023-01-07T03:37:50.488Z,27.85
2023-01-07T03:40:22.870Z,29.63
2023-01-07T03:42:50.842Z,29.65
2023-01-07T03:45:32.821Z,27.35
2023-01-07T03:48:03.702Z,28.08
2023-01-07T03:50:38.894Z,30.02
2023-01-07T03:53:12.740Z,29.23
2023-01-07T03:55:47.522Z,27.95
2023-01-07T03:58:17.681Z,26.50
2023-01-07T04:00:48.806Z,26.30
2023-01-07T04:03:22.246Z,29.45
2023-01-07T04:05:53.273Z,29.90
2023-01-07T04:08:25.943Z,28.27
2023-01-07T04:10:56.078Z,29.70
2023-01-07T04:13:26.960Z,26.98
2023-01-07T04:15:57.573Z,27.88
2023-01-07T04:18:28.205Z,28.40
2023-01-07T04:20:58.521Z,30.70
2023-01-07T04:23:32.135Z,30.25
2023-01-07T04:26:02.560Z,28.35
2023-01-07T04:28:32.651Z,29.70
2023-01-07T04:31:03.143Z,29.92
2023-01-07T04:33:34.469Z,28.92
2023-01-07T04:36:04.998Z,29.00
2023-01-07T04:38:37.779Z,29.23
2023-01-07T04:41:08.920Z,29.15
2023-01-07T04:43:39.343Z,29.98
2023-01-07T04:46:11.025Z,29.60
2023-01-07T04:48:41.201Z,28.50
2023-01-07T04:51:11.483Z,28.27
2023-01-07T04:53:44.838Z,30.13
2023-01-07T04:56:15.389Z,30.23
2023-01-07T04:58:46.766Z,27.70
2023-01-07T05:01:17.438Z,28.38
2023-01-07T05:03:47.725Z,29.77
2023-01-07T05:06:19.091Z,29.88
2023-01-07T05:08:52.665Z,29.15
2023-01-07T05:11:23.905Z,30.67
2023-01-07T05:13:57.482Z,28.38
2023-01-07T05:16:28.443Z,28.40
2023-01-07T05:19:01.888Z,27.52
2023-01-07T05:21:34.682Z,29.30
2023-01-07T05:24:07.739Z,29.15
2023-01-07T05:26:38.726Z,28.83
2023-01-07T05:29:08.824Z,28.10
2023-01-07T05:31:39.164Z,30.77
2023-01-07T05:34:10.213Z,30.85
2023-01-07T05:36:41.246Z,29.30
2023-01-07T05:39:15.122Z,30.40
2023-01-07T05:41:45.837Z,29.25
2023-01-07T05:44:15.998Z,29.75
2023-01-07T05:46:46.813Z,30.55
2023-01-07T05:49:16.807Z,29.17
2023-01-07T05:51:46.989Z,28.30
2023-01-07T05:54:19.674Z,31.15
2023-01-07T05:56:49.718Z,28.08
2023-01-07T05:59:20.277Z,28.55
2023-01-07T06:01:50.510Z,27.70
2023-01-07T06:04:20.845Z,29.25
2023-01-07T06:06:51.051Z,29.48
2023-01-07T06:09:25.521Z,29.67
2023-01-07T06:11:55.581Z,29.40
2023-01-07T06:14:25.659Z,30.02
2023-01-07T06:16:55.694Z,28.98
2023-01-07T06:19:26.614Z,29.15
2023-01-07T06:21:56.861Z,29.83
2023-01-07T06:24:29.486Z,28.73
2023-01-07T06:26:59.552Z,29.73
2023-01-07T06:29:29.641Z,28.83
2023-01-07T06:31:59.711Z,28.40
2023-01-07T06:34:29.772Z,29.67
2023-01-07T06:37:03.336Z,29.27
2023-01-07T06:39:36.128Z,29.35
2023-01-07T06:42:06.357Z,28.08
2023-01-07T06:44:36.578Z,30.05
2023-01-07T06:47:06.683Z,29.10
2023-01-07T06:49:36.717Z,30.33
2023-01-07T06:52:07.154Z,30.08
2023-01-07T06:54:39.801Z,31.25
2023-01-07T06:57:09.825Z,31.13
2023-01-07T06:59:39.876Z,31.15
2023-01-07T07:02:10.178Z,30.98
2023-01-07T07:04:40.235Z,32.45
2023-01-07T07:07:10.483Z,33.38
2023-01-07T07:09:43.293Z,29.73
2023-01-07T07:12:14.011Z,30.42
2023-01-07T07:14:46.664Z,34.05
2023-01-07T07:17:16.699Z,36.47
2023-01-07T07:19:48.099Z,34.63
2023-01-07T07:22:19.210Z,33.13
2023-01-07T07:24:51.886Z,32.45
2023-01-07T07:27:23.581Z,32.65
2023-01-07T07:29:53.902Z,34.53
2023-01-07T07:32:28.522Z,34.95
2023-01-07T07:34:59.018Z,40.55
2023-01-07T07:37:29.087Z,44.40
2023-01-07T07:40:01.841Z,53.88
2023-01-07T07:42:31.908Z,44.83
2023-01-07T07:45:27.000Z,35.42
2023-01-07T07:47:57.336Z,33.63
2023-01-07T07:50:27.668Z,32.35
2023-01-07T07:52:58.657Z,34.95
2023-01-07T07:55:31.537Z,32.35
2023-01-07T07:58:01.584Z,31.27
2023-01-07T08:00:32.279Z,30.30
2023-01-07T08:03:04.960Z,32.45
2023-01-07T08:05:35.138Z,31.85
2023-01-07T08:08:05.266Z,33.97
2023-01-07T08:10:40.540Z,38.60
2023-01-07T08:13:10.680Z,38.33
2023-01-07T08:15:41.605Z,40.22
2023-01-07T08:18:13.233Z,41.25
2023-01-07T08:20:43.309Z,43.55
2023-01-07T08:23:13.535Z,38.42
2023-01-07T08:25:48.566Z,37.33
2023-01-07T08:28:18.664Z,33.30
2023-01-07T08:30:51.856Z,27.95
2023-01-07T08:33:22.085Z,27.67
2023-01-07T08:35:53.703Z,23.75
2023-01-07T08:38:24.957Z,24.85
2023-01-07T08:40:57.682Z,24.90
2023-01-07T08:43:27.702Z,23.20
2023-01-07T08:45:58.048Z,24.45
2023-01-07T08:48:28.306Z,22.13
2023-01-07T08:50:58.344Z,21.50
2023-01-07T08:53:28.448Z,21.63
2023-01-07T08:56:01.147Z,21.67
2023-01-07T08:58:31.239Z,24.55
2023-01-07T09:01:08.525Z,21.73
2023-01-07T09:03:38.814Z,21.95
2023-01-07T09:06:09.802Z,18.73
2023-01-07T09:08:40.602Z,17.00
2023-01-07T09:11:13.269Z,17.50
2023-01-07T09:13:43.441Z,16.02
2023-01-07T09:16:14.168Z,15.90
2023-01-07T09:18:44.363Z,17.05
2023-01-07T09:21:16.677Z,16.95
2023-01-07T09:23:46.716Z,17.30
2023-01-07T09:26:21.087Z,17.55
2023-01-07T09:28:51.158Z,17.42
2023-01-07T09:31:22.140Z,16.63
2023-01-07T09:33:54.285Z,16.73
2023-01-07T09:36:24.317Z,17.00
2023-01-07T09:38:54.364Z,17.17
2023-01-07T09:41:37.133Z,13.85
2023-01-07T09:44:18.993Z,15.70
2023-01-07T09:46:53.410Z,16.67
2023-01-07T09:49:33.164Z,17.50
2023-01-07T09:52:10.724Z,63.50
2023-01-07T09:54:42.611Z,100.60
2023-01-07T09:57:20.972Z,62.00
2023-01-07T09:59:52.611Z,79.28
2023-01-07T10:02:37.802Z,65.00
2023-01-07T10:05:23.999Z,36.83
2023-01-07T10:08:30.533Z,23.15
2023-01-07T10:10:58.629Z,20.40
2023-01-07T10:13:58.582Z,18.08
2023-01-07T10:16:40.448Z,16.45
2023-01-07T10:19:21.152Z,13.15
2023-01-07T10:21:57.901Z,9.45
2023-01-07T10:24:32.233Z,11.00
2023-01-07T10:27:07.371Z,11.30
2023-01-07T10:29:46.071Z,11.23
2023-01-07T10:32:19.635Z,11.68
2023-01-07T10:34:54.146Z,11.30
2023-01-07T10:37:30.623Z,12.35
2023-01-07T10:40:18.285Z,12.35
2023-01-07T10:42:54.114Z,12.50
2023-01-07T10:46:03.063Z,12.68
2023-01-07T10:48:51.445Z,12.93
2023-01-07T10:51:41.688Z,13.60
2023-01-07T10:54:28.112Z,12.23
2023-01-07T10:57:04.165Z,13.02
2023-01-07T10:59:34.355Z,12.57
2023-01-07T11:02:16.012Z,12.02
2023-01-07T11:04:46.252Z,12.30
2023-01-07T11:07:25.101Z,31.98
2023-01-07T11:09:56.597Z,20.33
2023-01-07T11:12:35.693Z,16.50
2023-01-07T11:15:13.891Z,12.85
2023-01-07T11:17:51.979Z,13.05
2023-01-07T11:20:50.508Z,13.55
2023-01-07T11:23:23.077Z,12.90
2023-01-07T11:25:53.395Z,12.73
2023-01-07T11:28:29.468Z,10.98
2023-01-07T11:31:02.979Z,11.05
2023-01-07T11:34:01.351Z,11.57
2023-01-07T11:36:43.399Z,11.43
2023-01-07T11:39:15.541Z,10.63
2023-01-07T11:41:55.923Z,11.23
2023-01-07T11:44:27.714Z,10.40
2023-01-07T11:46:58.249Z,11.18
2023-01-07T11:49:33.488Z,10.25
2023-01-07T11:52:03.766Z,10.25
2023-01-07T11:54:35.394Z,10.65
2023-01-07T11:57:16.411Z,9.75
2023-01-07T11:59:46.554Z,10.30
2023-01-07T12:02:28.989Z,9.23
2023-01-07T12:05:20.368Z,10.98
2023-01-07T12:07:52.942Z,10.57
2023-01-07T12:10:35.959Z,10.20
2023-01-07T12:13:08.597Z,10.98
2023-01-07T12:15:52.206Z,9.75
2023-01-07T12:18:41.014Z,9.77
2023-01-07T12:21:49.935Z,11.60
2023-01-07T12:24:31.548Z,12.20
2023-01-07T12:27:09.631Z,12.00
2023-01-07T12:29:55.161Z,11.30
2023-01-07T12:32:41.266Z,12.23
2023-01-07T12:35:18.601Z,12.52
2023-01-07T12:37:57.090Z,12.68
2023-01-07T12:40:35.359Z,11.75
2023-01-07T12:43:15.142Z,13.65
2023-01-07T12:45:51.320Z,13.30
2023-01-07T12:48:28.757Z,12.80
2023-01-07T12:51:02.469Z,13.40
2023-01-07T12:56:16.676Z,13.57
2023-01-07T12:58:52.382Z,13.63
2023-01-07T13:01:30.561Z,13.55
2023-01-07T13:04:09.952Z,13.73
2023-01-07T13:06:49.076Z,13.98
2023-01-07T13:09:30.807Z,12.18
2023-01-07T13:12:42.572Z,15.85
2023-01-07T13:15:20.228Z,15.80
2023-01-07T13:17:54.007Z,14.20
2023-01-07T13:20:53.516Z,14.07
2023-01-07T13:23:30.453Z,14.35
2023-01-07T13:26:20.849Z,15.43
2023-01-07T13:29:05.099Z,14.45
2023-01-07T13:31:58.384Z,14.20
2023-01-07T13:34:39.652Z,13.40
2023-01-07T13:37:24.941Z,12.65
2023-01-07T13:40:20.144Z,13.73
2023-01-07T13:42:58.140Z,15.50
2023-01-07T13:45:32.089Z,14.52
2023-01-07T13:48:09.123Z,14.02
2023-01-07T13:50:45.008Z,15.93
2023-01-07T13:53:35.206Z,17.17
2023-01-07T13:56:34.070Z,16.42
2023-01-07T13:59:07.006Z,15.90
2023-01-07T14:02:17.834Z,16.00
2023-01-07T14:04:53.995Z,15.52
2023-01-07T14:07:24.095Z,15.05
2023-01-07T14:09:59.509Z,15.57
2023-01-07T14:13:01.881Z,15.10
2023-01-07T14:15:49.364Z,15.02
2023-01-07T14:18:44.237Z,18.77
2023-01-07T14:21:25.922Z,16.38
2023-01-07T14:24:18.427Z,15.55
2023-01-07T14:27:01.504Z,14.02
2023-01-07T14:29:44.647Z,15.68
2023-01-07T14:32:32.629Z,23.65
2023-01-07T14:35:10.416Z,21.27
2023-01-07T14:37:47.031Z,19.17
2023-01-07T14:41:02.154Z,16.60
2023-01-07T14:44:07.659Z,16.23
2023-01-07T14:46:52.384Z,16.30
2023-01-07T14:49:58.915Z,14.82
2023-01-07T14:52:52.675Z,15.85
2023-01-07T14:55:37.956Z,14.95
2023-01-07T14:58:29.155Z,15.38
2023-01-07T15:01:22.701Z,16.08
2023-01-07T15:03:59.895Z,15.23
2023-01-07T15:06:31.972Z,17.67
2023-01-07T15:09:24.095Z,17.45
2023-01-07T15:12:12.178Z,17.38
2023-01-07T15:15:00.616Z,17.17
2023-01-07T15:17:31.273Z,16.10
2023-01-07T15:20:02.470Z,16.67
2023-01-07T15:22:49.214Z,16.15
2023-01-07T15:25:34.976Z,17.92
2023-01-07T15:28:21.358Z,15.93
2023-01-07T15:31:01.139Z,17.33
2023-01-07T15:33:57.394Z,17.17
2023-01-07T15:36:29.670Z,16.98
2023-01-07T15:39:03.246Z,18.05
2023-01-07T15:41:38.574Z,19.17
2023-01-07T15:44:17.047Z,19.48
2023-01-07T15:46:47.311Z,20.00
2023-01-07T15:49:21.118Z,18.88
2023-01-07T15:51:54.669Z,20.27
2023-01-07T15:54:26.757Z,21.65
2023-01-07T15:57:02.807Z,23.15
2023-01-07T15:59:34.938Z,26.13
2023-01-07T16:02:19.101Z,29.02
2023-01-07T16:04:51.075Z,35.22
2023-01-07T16:07:26.187Z,34.40
2023-01-07T16:09:57.020Z,32.28
2023-01-07T16:12:38.450Z,30.48
2023-01-07T16:15:24.489Z,31.42
2023-01-07T16:17:56.939Z,32.08
2023-01-07T16:20:30.884Z,33.17
2023-01-07T16:23:20.810Z,32.40
2023-01-07T16:25:53.684Z,31.92
2023-01-07T16:28:30.445Z,31.45
2023-01-07T16:31:02.248Z,35.15
2023-01-07T16:33:35.125Z,31.58
2023-01-07T16:36:09.990Z,32.53
2023-01-07T16:38:40.800Z,34.08
2023-01-07T16:41:23.567Z,34.28
2023-01-07T16:43:58.978Z,39.45
2023-01-07T16:49:35.250Z,44.97
2023-01-07T16:52:14.305Z,43.97
2023-01-07T16:54:45.323Z,43.40
2023-01-07T16:57:32.660Z,41.47
2023-01-07T17:00:08.003Z,38.42
2023-01-07T17:02:43.582Z,39.42
2023-01-07T17:05:19.343Z,36.40
2023-01-07T17:07:56.140Z,38.15
2023-01-07T17:10:30.037Z,37.40
2023-01-07T17:13:04.566Z,39.00
2023-01-07T17:15:42.299Z,36.90
2023-01-07T17:18:34.249Z,37.42
2023-01-07T17:21:04.464Z,37.25
2023-01-07T17:23:36.261Z,37.78
2023-01-07T17:26:09.630Z,38.28
2023-01-07T17:28:47.882Z,41.17
2023-01-07T17:31:20.935Z,38.03
2023-01-07T17:33:53.253Z,39.50
2023-01-07T17:36:30.670Z,40.78
2023-01-07T17:39:00.812Z,41.00
2023-01-07T17:41:43.432Z,44.78
2023-01-07T17:44:14.769Z,45.83
2023-01-07T17:46:47.927Z,49.58
2023-01-07T17:49:18.075Z,48.72
2023-01-07T17:51:53.840Z,49.78
2023-01-07T17:54:27.527Z,49.33
2023-01-07T17:56:57.585Z,55.53
2023-01-07T17:59:27.729Z,56.97
2023-01-07T18:02:01.269Z,60.03
2023-01-07T18:04:34.618Z,59.10
2023-01-07T18:07:04.811Z,64.90
2023-01-07T18:09:35.092Z,60.83
2023-01-07T18:12:17.620Z,63.97
2023-01-07T18:14:50.169Z,61.58
2023-01-07T18:17:22.859Z,56.72
2023-01-07T18:19:54.504Z,57.20
2023-01-07T18:22:28.223Z,54.83
2023-01-07T18:25:01.358Z,55.58
2023-01-07T18:27:31.546Z,53.22
2023-01-07T18:30:03.978Z,49.53
2023-01-07T18:32:36.997Z,48.95
2023-01-07T18:35:07.527Z,53.67
2023-01-07T18:37:37.595Z,53.45
2023-01-07T18:40:09.475Z,56.53
2023-01-07T18:42:40.334Z,58.10
2023-01-07T18:45:15.663Z,61.10
2023-01-07T18:47:57.243Z,61.70
2023-01-07T18:50:27.470Z,62.17
2023-01-07T18:52:57.548Z,61.65
2023-01-07T18:55:29.565Z,63.38
2023-01-07T18:57:59.881Z,63.08
2023-01-07T19:00:33.304Z,59.92
2023-01-07T19:03:06.739Z,67.25
2023-01-07T19:05:39.231Z,62.65
2023-01-07T19:08:09.731Z,68.28
2023-01-07T19:10:45.688Z,67.88
2023-01-07T19:13:16.028Z,69.40
2023-01-07T19:15:46.876Z,71.15
2023-01-07T19:20:59.122Z,74.07
2023-01-07T19:23:29.161Z,75.10
2023-01-07T19:26:03.824Z,78.50
2023-01-07T19:28:34.638Z,79.68
2023-01-07T19:31:11.179Z,80.65
2023-01-07T19:33:46.375Z,85.72
2023-01-07T19:36:17.989Z,81.15
2023-01-07T19:38:51.931Z,89.30
2023-01-07T19:41:27.337Z,90.30
2023-01-07T19:44:01.337Z,94.47
2023-01-07T19:46:34.872Z,96.65
2023-01-07T19:49:09.009Z,97.35
2023-01-07T19:51:41.793Z,96.22
2023-01-07T19:54:18.852Z,93.65
2023-01-07T19:56:48.988Z,91.03
2023-01-07T19:59:19.074Z,94.45
2023-01-07T20:01:53.525Z,90.13
2023-01-07T20:04:27.535Z,92.93
2023-01-07T20:09:27.999Z,83.82
2023-01-07T20:11:58.573Z,88.68
2023-01-07T20:14:29.617Z,84.97
2023-01-07T20:16:59.694Z,87.30
2023-01-07T20:19:32.439Z,85.47
2023-01-07T20:22:03.104Z,84.57
2023-01-07T20:24:33.765Z,84.55
2023-01-07T20:27:06.240Z,82.13
2023-01-07T20:29:37.312Z,84.95
2023-01-07T20:32:09.119Z,85.30
2023-01-07T20:34:44.051Z,83.95
2023-01-07T20:37:14.618Z,82.32
2023-01-07T20:39:44.715Z,76.72
2023-01-07T20:42:14.793Z,77.22
2023-01-07T20:44:46.726Z,75.05
2023-01-07T20:47:16.900Z,73.38
2023-01-07T20:49:51.461Z,73.40
2023-01-07T20:52:21.607Z,71.68
2023-01-07T20:54:55.403Z,68.10
2023-01-07T20:59:55.548Z,73.72
2023-01-07T21:02:27.076Z,80.75
2023-01-07T21:05:00.158Z,78.65
2023-01-07T21:07:30.449Z,82.03
2023-01-07T21:10:00.659Z,81.00
2023-01-07T21:12:31.152Z,82.28
2023-01-07T21:15:03.064Z,81.57
2023-01-07T21:17:33.161Z,83.53
2023-01-07T21:20:06.314Z,82.82
2023-01-07T21:22:38.926Z,78.57
2023-01-07T21:25:11.497Z,78.80
2023-01-07T21:27:42.038Z,79.50
2023-01-07T21:30:18.584Z,81.38
2023-01-07T21:32:50.932Z,81.43
2023-01-07T21:35:25.368Z,82.22
2023-01-07T21:37:56.296Z,84.18
2023-01-07T21:40:26.966Z,86.60
2023-01-07T21:42:57.467Z,84.57
2023-01-07T21:45:27.914Z,96.97
2023-01-07T21:47:58.784Z,88.55
2023-01-07T21:50:32.103Z,87.57
2023-01-07T21:53:03.872Z,97.82
2023-01-07T21:55:34.022Z,92.97
2023-01-07T21:58:04.269Z,94.28
2023-01-07T22:00:35.043Z,88.53
2023-01-07T22:03:08.034Z,91.72
2023-01-07T22:05:42.809Z,100.65
2023-01-07T22:08:13.506Z,87.65
2023-01-07T22:10:51.966Z,94.85
2023-01-07T22:13:26.111Z,94.63
2023-01-07T22:16:01.979Z,97.57
2023-01-07T22:18:32.196Z,93.45
2023-01-07T22:21:05.382Z,106.32
2023-01-07T22:23:38.121Z,87.47
2023-01-07T22:26:10.786Z,86.72
2023-01-07T22:28:42.591Z,87.13
2023-01-07T22:31:18.629Z,89.22
2023-01-07T22:33:50.373Z,98.93
2023-01-07T22:36:27.831Z,82.53
2023-01-07T22:39:03.211Z,95.45
2023-01-07T22:41:36.816Z,89.80
2023-01-07T22:44:18.348Z,80.57
2023-01-07T22:46:53.127Z,87.57
2023-01-07T22:49:29.947Z,88.55
2023-01-07T22:52:05.277Z,100.97
2023-01-07T22:54:37.109Z,88.75
2023-01-07T22:57:13.277Z,98.82
2023-01-07T22:59:45.231Z,92.50
2023-01-07T23:02:18.932Z,89.78
2023-01-07T23:04:49.890Z,97.88
2023-01-07T23:07:23.382Z,89.75
2023-01-07T23:09:55.720Z,88.93
2023-01-07T23:12:26.842Z,83.05
2023-01-07T23:15:00.974Z,102.35
2023-01-07T23:17:32.153Z,84.53
2023-01-07T23:20:02.198Z,87.18
2023-01-07T23:22:34.852Z,88.10
2023-01-07T23:25:06.246Z,83.60
2023-01-07T23:27:38.640Z,77.53
2023-01-07T23:30:10.979Z,96.70
2023-01-07T23:32:41.006Z,80.72
2023-01-07T23:35:14.919Z,87.28
2023-01-07T23:40:18.027Z,79.03
2023-01-07T23:42:51.830Z,84.00
2023-01-07T23:45:22.534Z,78.60
2023-01-07T23:47:53.176Z,84.65
2023-01-07T23:50:23.400Z,87.03
2023-01-07T23:52:57.197Z,93.93
2023-01-07T23:55:27.452Z,90.45
2023-01-07T23:57:59.781Z,89.05
